Time;durP1;ratioP1;P1;durP2;ratioP2;P2;SDS_P1;SDS_P2;PMS_P1;PMS_P2;Temp;Humidity;BMP_temperature;BMP_pressure;BME280_temperature;BME280_humidity;BME280_pressure;Samples;Min_cycle;Max_cycle;Signal;HPM_P1;HPM_P2
2021/10/22 00:01:47;;;;;;;2.13;1.00;;;6.90;99.90;;;;;;5093584;28;20404;-71
2021/10/22 00:04:13;;;;;;;2.50;1.30;;;6.80;99.90;;;;;;5093298;28;20516;-70
2021/10/22 00:06:38;;;;;;;1.47;1.30;;;6.80;99.90;;;;;;5093532;28;20230;-71
2021/10/22 00:09:04;;;;;;;5.50;1.17;;;6.80;99.90;;;;;;5093439;28;20208;-70
2021/10/22 00:11:29;;;;;;;0.97;0.90;;;6.80;99.90;;;;;;5093312;28;20162;-71
2021/10/22 00:13:55;;;;;;;3.33;0.83;;;6.80;99.90;;;;;;5093335;28;20529;-71
2021/10/22 00:16:21;;;;;;;0.70;0.70;;;6.90;99.90;;;;;;5093623;28;20162;-70
2021/10/22 00:18:47;;;;;;;1.70;1.50;;;6.80;99.90;;;;;;5087390;28;20684;-70
2021/10/22 00:21:12;;;;;;;1.13;0.80;;;6.80;99.90;;;;;;5084000;28;20424;-70
2021/10/22 00:23:38;;;;;;;3.90;0.87;;;6.80;99.90;;;;;;5072791;28;20170;-70
2021/10/22 00:26:03;;;;;;;1.90;1.03;;;6.80;99.90;;;;;;5088163;28;20465;-70
2021/10/22 00:28:29;;;;;;;3.60;1.10;;;6.80;99.90;;;;;;5092882;28;20197;-70
2021/10/22 00:30:57;;;;;;;0.83;0.80;;;6.80;99.90;;;;;;5093030;28;20162;-70
2021/10/22 00:33:23;;;;;;;3.63;1.20;;;6.80;99.90;;;;;;5092612;28;20166;-70
2021/10/22 00:35:49;;;;;;;0.70;0.70;;;6.60;99.90;;;;;;5092825;28;20534;-70
2021/10/22 00:38:15;;;;;;;2.30;1.37;;;6.60;99.90;;;;;;5086061;28;20202;-70
2021/10/22 00:40:40;;;;;;;1.00;0.90;;;6.60;99.90;;;;;;5092778;28;20404;-70
2021/10/22 00:43:06;;;;;;;1.73;1.40;;;6.50;99.90;;;;;;5092632;28;20208;-68
2021/10/22 00:45:31;;;;;;;2.80;1.00;;;6.60;99.90;;;;;;5092563;28;20170;-70
2021/10/22 00:47:57;;;;;;;1.60;1.50;;;6.60;99.90;;;;;;5092407;28;20193;-68
2021/10/22 00:50:23;;;;;;;1.37;0.90;;;6.60;99.90;;;;;;5092520;28;20169;-69
2021/10/22 00:52:48;;;;;;;3.00;0.90;;;6.50;99.90;;;;;;5092487;28;20166;-69
2021/10/22 00:55:15;;;;;;;3.50;1.20;;;6.50;99.90;;;;;;5092373;28;20812;-69
2021/10/22 00:57:41;;;;;;;3.23;0.90;;;6.60;99.90;;;;;;5092384;28;20243;-69
2021/10/22 01:00:07;;;;;;;1.73;0.87;;;6.60;99.90;;;;;;5091530;28;20491;-69
2021/10/22 01:02:37;;;;;;;1.60;1.17;;;6.50;99.90;;;;;;5092164;28;20407;-68
2021/10/22 01:05:10;;;;;;;3.30;1.07;;;6.50;99.90;;;;;;5092223;28;20883;-68
2021/10/22 01:07:39;;;;;;;1.20;1.07;;;6.50;99.90;;;;;;5091125;28;21045;-69
2021/10/22 01:10:06;;;;;;;1.00;0.93;;;6.50;99.90;;;;;;5092219;28;20406;-69
2021/10/22 01:12:32;;;;;;;3.10;1.73;;;6.50;99.90;;;;;;5088981;28;20404;-69
2021/10/22 01:15:01;;;;;;;7.63;1.47;;;6.50;99.90;;;;;;5087475;28;20478;-69
2021/10/22 01:17:37;;;;;;;1.90;1.50;;;6.40;99.90;;;;;;5090019;28;20435;-70
2021/10/22 01:20:09;;;;;;;2.67;0.80;;;6.40;99.90;;;;;;5092287;28;20418;-69
2021/10/22 01:22:36;;;;;;;4.03;1.30;;;6.50;99.90;;;;;;5092012;28;20902;-70
2021/10/22 01:25:01;;;;;;;3.83;1.57;;;6.40;99.90;;;;;;5091868;28;20407;-69
2021/10/22 01:27:27;;;;;;;1.53;1.20;;;6.40;99.90;;;;;;5091866;28;20872;-69
2021/10/22 01:29:53;;;;;;;3.90;1.07;;;6.40;99.90;;;;;;5092059;28;20438;-69
2021/10/22 01:32:19;;;;;;;3.63;0.97;;;6.40;99.90;;;;;;5086958;28;20166;-69
2021/10/22 01:34:44;;;;;;;1.07;0.70;;;6.40;99.90;;;;;;5090672;28;20884;-69
2021/10/22 01:37:10;;;;;;;11.50;1.57;;;6.40;99.90;;;;;;5092079;28;20301;-69
2021/10/22 01:39:36;;;;;;;0.80;0.80;;;6.40;99.90;;;;;;5091877;28;20244;-69
2021/10/22 01:42:03;;;;;;;2.10;1.20;;;6.40;99.90;;;;;;5091823;28;20621;-69
2021/10/22 01:44:32;;;;;;;1.47;0.87;;;6.40;99.90;;;;;;5091786;28;20161;-70
2021/10/22 01:46:57;;;;;;;8.13;1.13;;;6.40;99.90;;;;;;5091610;28;20420;-69
2021/10/22 01:49:22;;;;;;;2.40;1.27;;;6.40;99.90;;;;;;5091795;28;20415;-69
2021/10/22 01:51:48;;;;;;;2.40;1.03;;;6.30;99.90;;;;;;5091724;28;20631;-68
2021/10/22 01:54:14;;;;;;;1.30;1.20;;;6.40;99.90;;;;;;5091290;28;20170;-69
2021/10/22 01:56:39;;;;;;;6.50;1.93;;;6.40;99.90;;;;;;5091462;28;20166;-70
2021/10/22 01:59:05;;;;;;;1.23;0.90;;;6.40;99.90;;;;;;5091421;28;20169;-69
2021/10/22 02:01:30;;;;;;;0.83;0.83;;;6.30;99.90;;;;;;5091289;28;20670;-68
2021/10/22 02:03:56;;;;;;;2.10;1.33;;;6.30;99.90;;;;;;5091362;28;20177;-71
2021/10/22 02:06:22;;;;;;;4.73;1.03;;;6.30;99.90;;;;;;5091524;28;20231;-69
2021/10/22 02:08:48;;;;;;;1.17;1.03;;;6.40;99.90;;;;;;5091151;28;20185;-71
2021/10/22 02:11:14;;;;;;;0.70;0.70;;;6.40;99.90;;;;;;5092308;28;20410;-70
2021/10/22 02:13:39;;;;;;;6.93;1.20;;;6.40;99.90;;;;;;5095235;28;20166;-70
2021/10/22 02:16:05;;;;;;;2.33;1.10;;;6.40;99.90;;;;;;5095521;28;20173;-70
2021/10/22 02:18:30;;;;;;;5.37;1.30;;;6.30;99.90;;;;;;5095040;28;20205;-71
2021/10/22 02:20:56;;;;;;;1.07;0.90;;;6.20;99.90;;;;;;5095134;28;20177;-70
2021/10/22 02:23:22;;;;;;;2.40;1.80;;;6.20;99.90;;;;;;5095050;28;20606;-71
2021/10/22 02:25:47;;;;;;;6.40;0.97;;;6.10;99.90;;;;;;5095152;28;20258;-70
2021/10/22 02:28:13;;;;;;;7.53;1.30;;;6.20;99.90;;;;;;5094562;28;20763;-70
2021/10/22 02:30:42;;;;;;;1.87;1.53;;;6.20;99.90;;;;;;5094981;28;20161;-68
2021/10/22 02:33:08;;;;;;;3.50;1.70;;;6.30;99.90;;;;;;5094697;28;20450;-71
2021/10/22 02:35:35;;;;;;;2.10;1.63;;;6.30;99.90;;;;;;5094789;28;20407;-70
2021/10/22 02:38:03;;;;;;;1.10;1.00;;;6.30;99.90;;;;;;5094687;28;20457;-71
2021/10/22 02:40:31;;;;;;;3.20;1.07;;;6.30;99.90;;;;;;5094880;28;20410;-71
2021/10/22 02:42:57;;;;;;;1.87;1.20;;;6.20;99.90;;;;;;5094685;28;20821;-71
2021/10/22 02:45:26;;;;;;;0.97;0.80;;;6.20;99.90;;;;;;5094438;28;20407;-70
2021/10/22 02:47:52;;;;;;;3.17;1.10;;;6.30;99.90;;;;;;5094599;28;20675;-70
2021/10/22 02:50:18;;;;;;;1.87;1.00;;;6.30;99.90;;;;;;5094366;28;20442;-70
2021/10/22 02:52:44;;;;;;;0.60;0.60;;;6.40;99.90;;;;;;5094127;28;20176;-71
2021/10/22 02:55:09;;;;;;;2.03;1.00;;;6.40;99.90;;;;;;5094138;28;20404;-71
2021/10/22 02:57:35;;;;;;;2.93;1.47;;;6.40;99.90;;;;;;5094323;28;20189;-70
2021/10/22 03:00:00;;;;;;;4.20;1.80;;;6.40;99.90;;;;;;5094357;28;20166;-70
2021/10/22 03:02:26;;;;;;;2.70;1.50;;;6.40;99.90;;;;;;5094243;28;20178;-71
2021/10/22 03:04:51;;;;;;;0.77;0.77;;;6.40;99.90;;;;;;5094196;28;20177;-71
2021/10/22 03:07:20;;;;;;;5.93;1.80;;;6.40;99.90;;;;;;5092114;28;20212;-70
2021/10/22 03:09:45;;;;;;;1.20;0.73;;;6.50;99.90;;;;;;5091369;28;20174;-71
2021/10/22 03:12:10;;;;;;;1.50;1.03;;;6.50;99.90;;;;;;5094097;28;20503;-71
2021/10/22 03:14:36;;;;;;;2.70;0.90;;;6.40;99.90;;;;;;5094003;28;20169;-71
2021/10/22 03:17:02;;;;;;;0.97;0.73;;;6.50;99.90;;;;;;5093499;28;20186;-71
2021/10/22 03:19:27;;;;;;;3.13;1.10;;;6.50;99.90;;;;;;5093712;28;20573;-71
2021/10/22 03:21:53;;;;;;;1.20;0.97;;;6.50;99.90;;;;;;5093692;28;20178;-70
2021/10/22 03:24:18;;;;;;;1.57;1.27;;;6.50;99.90;;;;;;5092840;28;20173;-70
2021/10/22 03:26:44;;;;;;;1.30;0.70;;;6.50;99.90;;;;;;5091439;28;20181;-70
2021/10/22 03:29:09;;;;;;;2.10;1.60;;;6.50;99.90;;;;;;5093695;28;20691;-70
2021/10/22 03:31:35;;;;;;;3.47;1.93;;;6.50;99.90;;;;;;5093737;28;20219;-71
2021/10/22 03:34:01;;;;;;;2.37;1.93;;;6.50;99.90;;;;;;5093390;28;20165;-70
2021/10/22 03:36:26;;;;;;;1.13;1.03;;;6.60;99.90;;;;;;5093428;28;21096;-70
2021/10/22 03:38:52;;;;;;;3.33;1.20;;;6.60;99.90;;;;;;5093723;28;20197;-70
2021/10/22 03:41:17;;;;;;;2.77;1.00;;;6.60;99.90;;;;;;5093807;28;20525;-70
2021/10/22 03:43:43;;;;;;;2.30;1.47;;;6.50;99.90;;;;;;5093949;28;20649;-71
2021/10/22 03:46:08;;;;;;;3.60;1.17;;;6.50;99.90;;;;;;5093356;28;20165;-70
2021/10/22 03:48:34;;;;;;;2.00;0.80;;;6.50;99.90;;;;;;5093018;28;20201;-71
2021/10/22 03:50:59;;;;;;;1.73;1.10;;;6.60;99.90;;;;;;5093151;28;20174;-71
2021/10/22 03:53:25;;;;;;;0.80;0.80;;;6.60;99.90;;;;;;5093206;28;20242;-71
2021/10/22 03:55:50;;;;;;;4.97;1.37;;;6.70;99.90;;;;;;5093444;28;20240;-70
2021/10/22 03:58:19;;;;;;;3.13;1.03;;;6.70;99.90;;;;;;5092949;28;20728;-70
2021/10/22 04:00:46;;;;;;;2.90;1.00;;;6.60;99.90;;;;;;5093231;28;20506;-71
2021/10/22 04:03:12;;;;;;;3.63;1.60;;;6.70;99.90;;;;;;5092891;28;20490;-71
2021/10/22 04:05:38;;;;;;;2.40;1.07;;;6.60;99.90;;;;;;5092970;28;20457;-70
2021/10/22 04:08:03;;;;;;;2.70;0.90;;;6.60;99.90;;;;;;5093355;28;20451;-70
2021/10/22 04:10:29;;;;;;;4.63;1.10;;;6.60;99.90;;;;;;5092941;28;20249;-69
2021/10/22 04:12:57;;;;;;;3.07;0.87;;;6.60;99.90;;;;;;5092826;28;20261;-70
2021/10/22 04:15:23;;;;;;;1.23;0.80;;;6.60;99.90;;;;;;5092789;28;20205;-68
2021/10/22 04:17:48;;;;;;;1.87;1.37;;;6.60;99.90;;;;;;5092715;28;20483;-68
2021/10/22 04:20:14;;;;;;;1.40;0.90;;;6.60;99.90;;;;;;5092799;28;20166;-70
2021/10/22 04:22:39;;;;;;;1.03;0.93;;;6.60;99.90;;;;;;5092767;28;20169;-69
2021/10/22 04:25:05;;;;;;;1.10;0.90;;;6.60;99.90;;;;;;5091882;28;20644;-70
2021/10/22 04:27:32;;;;;;;1.23;1.03;;;6.60;99.90;;;;;;5092619;28;20194;-69
2021/10/22 04:30:05;;;;;;;2.90;1.40;;;6.70;99.90;;;;;;5092543;28;20438;-70
2021/10/22 04:32:31;;;;;;;1.63;1.30;;;6.60;99.90;;;;;;5092336;28;20726;-70
2021/10/22 04:34:56;;;;;;;1.50;1.20;;;6.70;99.90;;;;;;5092076;28;20403;-70
2021/10/22 04:42:45;;;;;;;1.10;1.00;;;6.70;99.90;;;;;;5092130;28;20184;-70
2021/10/22 04:45:11;;;;;;;6.80;1.33;;;6.70;99.90;;;;;;5092079;28;20774;-70
2021/10/22 04:47:38;;;;;;;2.73;1.30;;;6.70;99.90;;;;;;5091882;28;20541;-71
2021/10/22 04:50:06;;;;;;;2.00;1.77;;;6.70;99.90;;;;;;5092086;28;20894;-70
2021/10/22 04:52:31;;;;;;;1.63;1.17;;;6.70;99.90;;;;;;5092112;28;20399;-70
2021/10/22 04:54:57;;;;;;;3.40;1.10;;;6.70;99.90;;;;;;5092204;28;21027;-69
2021/10/22 04:57:22;;;;;;;1.70;1.23;;;6.70;99.90;;;;;;5091903;28;20196;-69
2021/10/22 04:59:48;;;;;;;4.43;1.33;;;6.70;99.90;;;;;;5092014;28;20166;-69
2021/10/22 05:02:13;;;;;;;2.73;1.33;;;6.70;99.90;;;;;;5091887;28;20315;-69
2021/10/22 05:04:38;;;;;;;2.20;1.17;;;6.70;99.90;;;;;;5091785;28;20173;-69
2021/10/22 05:07:04;;;;;;;8.63;1.43;;;6.60;99.90;;;;;;5091957;28;20668;-69
2021/10/22 05:09:29;;;;;;;1.23;0.93;;;6.70;99.90;;;;;;5090785;28;20177;-69
2021/10/22 05:11:55;;;;;;;2.40;1.00;;;6.70;99.90;;;;;;5091747;28;20659;-69
2021/10/22 05:14:21;;;;;;;1.93;0.80;;;6.70;99.90;;;;;;5091698;28;20173;-71
2021/10/22 05:16:46;;;;;;;1.53;1.17;;;6.80;99.90;;;;;;5091960;28;21083;-69
2021/10/22 05:19:12;;;;;;;1.73;0.90;;;6.80;99.90;;;;;;5091646;28;20276;-70
2021/10/22 05:21:37;;;;;;;0.80;0.80;;;6.80;99.90;;;;;;5091869;28;20663;-69
2021/10/22 05:24:03;;;;;;;2.10;0.70;;;6.80;99.90;;;;;;5091815;28;20166;-69
2021/10/22 05:26:29;;;;;;;1.83;0.80;;;6.90;99.90;;;;;;5091632;28;20860;-70
2021/10/22 05:28:54;;;;;;;0.87;0.77;;;6.80;99.90;;;;;;5091590;28;20299;-70
2021/10/22 05:31:20;;;;;;;1.87;1.33;;;6.80;99.90;;;;;;5091654;28;20165;-70
2021/10/22 05:33:45;;;;;;;1.40;1.03;;;6.70;99.90;;;;;;5091510;28;20174;-70
2021/10/22 05:36:10;;;;;;;5.83;1.40;;;6.70;99.90;;;;;;5091689;28;20216;-70
2021/10/22 05:38:36;;;;;;;4.40;1.70;;;6.60;99.90;;;;;;5086244;28;20201;-70
2021/10/22 05:41:01;;;;;;;1.30;1.10;;;6.60;99.90;;;;;;5078634;28;20252;-69
2021/10/22 05:43:27;;;;;;;1.13;1.03;;;6.60;99.90;;;;;;5070961;28;20715;-70
2021/10/22 05:45:53;;;;;;;0.80;0.80;;;6.60;99.90;;;;;;5092333;28;20188;-70
2021/10/22 05:48:18;;;;;;;2.23;1.23;;;6.70;99.90;;;;;;5097859;28;20222;-70
2021/10/22 05:50:44;;;;;;;1.30;1.00;;;6.60;99.90;;;;;;5098001;28;20197;-70
2021/10/22 05:53:09;;;;;;;1.53;0.87;;;6.60;99.90;;;;;;5098011;28;20165;-70
2021/10/22 05:55:35;;;;;;;2.67;1.70;;;6.70;99.90;;;;;;5097823;28;20180;-70
2021/10/22 05:58:00;;;;;;;2.57;1.00;;;6.70;99.90;;;;;;5094085;28;20197;-70
2021/10/22 06:00:25;;;;;;;2.77;1.10;;;6.60;99.90;;;;;;5097991;28;20234;-70
2021/10/22 06:02:53;;;;;;;7.43;1.97;;;6.60;99.90;;;;;;5097959;28;20212;-70
2021/10/22 06:05:19;;;;;;;1.50;1.30;;;6.70;99.90;;;;;;5097927;28;20165;-70
2021/10/22 06:07:44;;;;;;;1.20;1.10;;;6.80;99.90;;;;;;5097787;28;20461;-69
2021/10/22 06:10:10;;;;;;;2.53;1.10;;;6.90;99.90;;;;;;5097923;28;20299;-69
2021/10/22 06:12:35;;;;;;;3.03;1.03;;;6.90;99.90;;;;;;5097764;28;20174;-69
2021/10/22 06:15:01;;;;;;;2.63;1.03;;;7.00;99.90;;;;;;5097805;28;20552;-69
2021/10/22 06:17:27;;;;;;;2.27;1.40;;;7.10;99.90;;;;;;5097557;28;20544;-69
2021/10/22 06:19:55;;;;;;;1.10;1.00;;;7.10;99.90;;;;;;5098031;28;20422;-70
2021/10/22 06:23:53;;;;;;;2.10;1.57;;;7.10;99.90;;;;;;5097776;28;20161;-70
2021/10/22 06:25:07;;;;;;;1.57;1.00;;;7.20;99.90;;;;;;5093425;28;20452;-70
2021/10/22 06:27:33;;;;;;;1.00;0.77;;;7.20;99.90;;;;;;5097664;28;20540;-70
2021/10/22 06:29:59;;;;;;;1.73;1.13;;;7.30;99.90;;;;;;5097896;28;20403;-69
2021/10/22 06:32:25;;;;;;;1.23;1.13;;;7.40;99.90;;;;;;5098028;28;20158;-72
2021/10/22 06:34:51;;;;;;;1.33;0.90;;;7.40;99.90;;;;;;5097737;28;20499;-71
2021/10/22 06:37:16;;;;;;;2.30;1.00;;;7.40;99.90;;;;;;5096266;28;20247;-71
2021/10/22 06:39:42;;;;;;;3.53;1.13;;;7.50;99.90;;;;;;5097830;28;20789;-71
2021/10/22 06:42:07;;;;;;;2.00;0.93;;;7.50;99.90;;;;;;5098023;28;20178;-71
2021/10/22 06:44:33;;;;;;;2.43;1.30;;;7.50;99.90;;;;;;5097642;28;20238;-71
2021/10/22 06:47:00;;;;;;;2.73;1.03;;;7.60;99.90;;;;;;5097986;28;20188;-71
2021/10/22 06:49:26;;;;;;;1.47;1.10;;;7.70;99.90;;;;;;5097578;28;20209;-71
2021/10/22 06:51:52;;;;;;;1.00;0.90;;;7.70;99.90;;;;;;5097501;28;20969;-70
2021/10/22 06:54:18;;;;;;;1.67;1.37;;;7.70;99.90;;;;;;5097332;28;20158;-71
2021/10/22 06:56:43;;;;;;;1.73;1.00;;;7.70;99.90;;;;;;5094209;28;20477;-70
2021/10/22 06:59:08;;;;;;;2.00;1.27;;;7.80;99.90;;;;;;5094073;28;20194;-71
2021/10/22 07:01:34;;;;;;;2.43;0.80;;;7.80;99.90;;;;;;5095080;28;20164;-71
2021/10/22 07:04:00;;;;;;;2.13;2.03;;;7.90;99.90;;;;;;5094119;28;20171;-71
2021/10/22 07:08:52;;;;;;;1.30;1.00;;;7.90;99.90;;;;;;5094192;28;20890;-72
2021/10/22 07:11:19;;;;;;;1.47;1.37;;;7.90;99.90;;;;;;5094247;28;20237;-71
2021/10/22 07:13:51;;;;;;;0.83;0.83;;;8.00;99.90;;;;;;5094923;28;20758;-72
2021/10/22 07:16:17;;;;;;;1.20;1.10;;;8.00;99.90;;;;;;5094125;28;21088;-71
2021/10/22 07:18:44;;;;;;;1.20;1.10;;;8.00;99.90;;;;;;5093765;28;20458;-72
2021/10/22 07:21:10;;;;;;;2.07;1.17;;;8.10;99.90;;;;;;5091986;28;20414;-71
2021/10/22 07:23:36;;;;;;;2.43;0.93;;;8.10;99.90;;;;;;5094079;28;20416;-72
2021/10/22 07:26:02;;;;;;;0.83;0.77;;;8.20;99.90;;;;;;5094022;28;20485;-71
2021/10/22 07:28:27;;;;;;;3.97;1.37;;;8.20;99.90;;;;;;5093611;28;20602;-71
2021/10/22 07:30:53;;;;;;;0.90;0.70;;;8.20;99.90;;;;;;5088343;28;20634;-72
2021/10/22 07:33:21;;;;;;;1.73;0.87;;;8.20;99.90;;;;;;5081650;28;20179;-71
2021/10/22 07:35:46;;;;;;;1.60;1.03;;;8.30;99.90;;;;;;5073509;28;20166;-71
2021/10/22 07:38:12;;;;;;;1.20;0.93;;;8.30;99.90;;;;;;5073314;28;20591;-71
2021/10/22 07:40:45;;;;;;;1.60;0.90;;;8.40;99.90;;;;;;5075243;28;20198;-71
2021/10/22 07:43:11;;;;;;;1.53;1.00;;;8.40;99.90;;;;;;5073143;28;20643;-71
2021/10/22 07:45:36;;;;;;;2.60;1.47;;;8.40;99.90;;;;;;5072973;28;20408;-71
2021/10/22 07:48:02;;;;;;;7.00;1.53;;;8.40;99.90;;;;;;5073423;28;20208;-71
2021/10/22 07:50:27;;;;;;;1.20;0.83;;;8.40;99.90;;;;;;5083683;28;20667;-73
2021/10/22 07:52:53;;;;;;;7.10;0.83;;;8.40;99.90;;;;;;5093182;28;20197;-71
2021/10/22 07:55:18;;;;;;;4.17;1.10;;;8.40;99.90;;;;;;5093147;28;20237;-71
2021/10/22 07:57:44;;;;;;;2.30;0.80;;;8.40;99.90;;;;;;5092553;28;20211;-71
2021/10/22 08:00:11;;;;;;;1.13;0.70;;;8.50;99.90;;;;;;5091763;28;20578;-72
2021/10/22 08:02:36;;;;;;;1.73;1.00;;;8.40;99.90;;;;;;5092986;28;20276;-71
2021/10/22 08:05:03;;;;;;;2.80;0.80;;;8.40;99.90;;;;;;5090199;28;20450;-72
2021/10/22 08:07:33;;;;;;;0.73;0.73;;;8.50;99.90;;;;;;5092718;28;20225;-71
2021/10/22 08:10:00;;;;;;;1.63;0.80;;;8.50;99.90;;;;;;5092316;28;20746;-71
2021/10/22 08:12:27;;;;;;;1.53;1.40;;;8.50;99.90;;;;;;5092806;28;20413;-71
2021/10/22 08:14:52;;;;;;;2.70;1.10;;;8.40;99.90;;;;;;5092717;28;20824;-70
2021/10/22 08:17:19;;;;;;;2.83;1.10;;;8.40;99.90;;;;;;5091453;28;20527;-70
2021/10/22 08:19:51;;;;;;;1.23;0.80;;;8.50;99.90;;;;;;5092979;28;20542;-71
2021/10/22 08:22:27;;;;;;;1.00;0.80;;;8.50;99.90;;;;;;5093067;28;20439;-71
2021/10/22 08:24:55;;;;;;;2.17;0.90;;;8.50;99.90;;;;;;5091968;28;20909;-70
2021/10/22 08:27:20;;;;;;;2.10;0.87;;;8.50;99.90;;;;;;5090751;28;20418;-70
2021/10/22 08:29:46;;;;;;;4.73;1.23;;;8.60;99.90;;;;;;5092555;28;20409;-71
2021/10/22 08:32:11;;;;;;;2.50;0.80;;;8.60;99.90;;;;;;5092622;28;20194;-71
2021/10/22 08:34:37;;;;;;;1.63;0.90;;;8.50;99.90;;;;;;5092665;28;20242;-71
2021/10/22 08:37:03;;;;;;;1.13;0.90;;;8.60;99.90;;;;;;5091698;28;20282;-71
2021/10/22 08:39:28;;;;;;;2.47;1.67;;;8.60;99.90;;;;;;5092807;28;20543;-70
2021/10/22 08:41:57;;;;;;;2.27;1.30;;;8.70;99.90;;;;;;5092538;28;20168;-70
2021/10/22 08:44:23;;;;;;;2.30;1.20;;;8.70;99.90;;;;;;5092434;28;20168;-70
2021/10/22 08:46:52;;;;;;;2.27;1.00;;;8.80;99.90;;;;;;5092614;28;20413;-71
2021/10/22 08:49:17;;;;;;;0.80;0.80;;;8.80;99.90;;;;;;5092683;28;20457;-72
2021/10/22 08:51:43;;;;;;;1.23;0.80;;;8.80;99.90;;;;;;5092469;28;20571;-71
2021/10/22 08:54:11;;;;;;;1.87;1.73;;;8.80;99.90;;;;;;5092565;28;20162;-71
2021/10/22 08:56:40;;;;;;;1.70;0.87;;;8.80;99.90;;;;;;5091846;28;20772;-71
2021/10/22 08:59:06;;;;;;;1.47;1.07;;;8.80;99.90;;;;;;5092102;28;20421;-72
2021/10/22 09:01:32;;;;;;;3.33;0.93;;;8.90;99.90;;;;;;5074750;28;20416;-72
2021/10/22 09:03:57;;;;;;;2.00;0.93;;;9.00;99.90;;;;;;5072005;28;20259;-71
2021/10/22 09:06:23;;;;;;;3.73;1.13;;;9.10;99.90;;;;;;5086373;28;20235;-71
2021/10/22 09:08:56;;;;;;;6.60;1.30;;;9.20;99.90;;;;;;5091677;28;20203;-72
2021/10/22 09:11:31;;;;;;;1.23;0.80;;;9.20;99.90;;;;;;5092144;28;20172;-71
2021/10/22 09:14:03;;;;;;;2.07;1.10;;;9.30;99.90;;;;;;5091979;28;20464;-71
2021/10/22 09:16:31;;;;;;;0.97;0.80;;;9.20;99.90;;;;;;5092262;28;20754;-72
2021/10/22 09:18:58;;;;;;;1.73;0.90;;;9.30;99.90;;;;;;5090391;28;21143;-71
2021/10/22 09:21:29;;;;;;;1.00;0.80;;;9.50;99.90;;;;;;5091359;28;20408;-71
2021/10/22 09:24:16;;;;;;;2.07;1.20;;;9.60;99.90;;;;;;5091596;28;20423;-71
2021/10/22 09:26:50;;;;;;;2.40;1.60;;;9.60;99.90;;;;;;5072096;28;20417;-71
2021/10/22 09:29:21;;;;;;;0.80;0.80;;;9.60;99.90;;;;;;5089556;28;20588;-72
2021/10/22 09:31:49;;;;;;;5.10;3.30;;;9.70;99.90;;;;;;5092275;28;20926;-72
2021/10/22 09:34:35;;;;;;;1.80;1.40;;;9.70;99.90;;;;;;5092051;28;20392;-73
2021/10/22 09:37:12;;;;;;;0.73;0.73;;;9.50;99.90;;;;;;5092088;28;20411;-75
2021/10/22 09:39:38;;;;;;;0.83;0.80;;;9.40;99.90;;;;;;5092217;28;20397;-75
2021/10/22 09:42:11;;;;;;;1.27;1.17;;;9.40;99.90;;;;;;5091967;28;20399;-73
2021/10/22 09:44:40;;;;;;;1.50;0.90;;;9.40;99.90;;;;;;5092114;28;20416;-72
2021/10/22 09:47:06;;;;;;;1.10;0.90;;;9.30;99.90;;;;;;5091799;28;20458;-71
2021/10/22 09:49:43;;;;;;;1.73;1.10;;;9.30;99.90;;;;;;5091768;28;20543;-72
2021/10/22 09:52:20;;;;;;;1.30;0.90;;;9.30;99.90;;;;;;5091822;28;20166;-71
2021/10/22 09:54:47;;;;;;;1.83;1.30;;;9.30;99.90;;;;;;5091703;28;20779;-72
2021/10/22 09:57:16;;;;;;;4.93;1.50;;;9.30;99.90;;;;;;5091668;28;20420;-71
2021/10/22 09:59:42;;;;;;;6.30;1.20;;;9.40;99.90;;;;;;5091438;28;20407;-71
2021/10/22 10:02:09;;;;;;;2.27;0.80;;;9.30;99.90;;;;;;5091678;28;20752;-73
2021/10/22 10:04:37;;;;;;;0.80;0.80;;;9.30;99.90;;;;;;5089906;28;20414;-71
2021/10/22 10:07:05;;;;;;;2.50;1.10;;;9.30;99.90;;;;;;5091350;28;20424;-70
2021/10/22 10:09:31;;;;;;;2.90;1.40;;;9.40;99.90;;;;;;5091178;28;20452;-71
2021/10/22 10:12:01;;;;;;;5.97;1.70;;;9.40;99.90;;;;;;5091419;28;20768;-71
2021/10/22 10:14:27;;;;;;;1.43;1.13;;;9.30;99.90;;;;;;5091507;28;20402;-71
2021/10/22 10:16:54;;;;;;;0.80;0.80;;;9.40;99.90;;;;;;5091338;28;20473;-70
2021/10/22 10:19:26;;;;;;;1.30;1.13;;;9.50;99.90;;;;;;5091110;28;20423;-71
2021/10/22 10:22:01;;;;;;;1.33;0.90;;;9.60;99.90;;;;;;5090565;28;20417;-71
2021/10/22 10:24:36;;;;;;;3.40;1.00;;;9.50;99.90;;;;;;5091230;28;20817;-71
2021/10/22 10:27:09;;;;;;;1.90;1.20;;;9.60;99.90;;;;;;5072673;28;20440;-71
2021/10/22 10:29:40;;;;;;;0.70;0.70;;;9.70;99.90;;;;;;5071215;28;20447;-71
2021/10/22 10:32:17;;;;;;;2.53;1.10;;;9.60;99.90;;;;;;5087221;28;20431;-71
2021/10/22 10:34:58;;;;;;;2.30;1.23;;;9.70;99.90;;;;;;5075151;28;20492;-72
2021/10/22 10:37:27;;;;;;;2.10;1.13;;;9.60;99.90;;;;;;5091149;28;20427;-71
2021/10/22 10:39:56;;;;;;;1.20;0.90;;;9.60;99.90;;;;;;5094693;28;20484;-71
2021/10/22 10:42:29;;;;;;;6.10;1.60;;;9.60;99.90;;;;;;5095140;28;20944;-72
2021/10/22 10:44:57;;;;;;;0.70;0.70;;;9.60;99.90;;;;;;5094935;28;20402;-71
2021/10/22 10:47:33;;;;;;;2.63;1.17;;;9.60;99.90;;;;;;5083308;28;20798;-71
2021/10/22 10:49:59;;;;;;;4.90;1.30;;;9.60;99.90;;;;;;5081771;28;20724;-71
2021/10/22 10:52:37;;;;;;;2.50;1.13;;;9.70;99.90;;;;;;5094869;28;20502;-70
2021/10/22 10:55:32;;;;;;;2.20;1.10;;;9.60;99.90;;;;;;5093531;28;20408;-71
2021/10/22 10:58:10;;;;;;;0.97;0.87;;;9.70;99.90;;;;;;5094568;28;20427;-71
2021/10/22 11:00:54;;;;;;;1.47;1.00;;;9.60;99.90;;;;;;5094889;28;20413;-71
2021/10/22 11:03:42;;;;;;;1.33;1.00;;;9.60;99.90;;;;;;5095057;28;20404;-71
2021/10/22 11:06:09;;;;;;;1.93;0.97;;;9.50;99.90;;;;;;5094872;28;20395;-70
2021/10/22 11:08:34;;;;;;;1.00;0.90;;;9.60;99.90;;;;;;5094898;28;20467;-70
2021/10/22 11:11:15;;;;;;;1.50;0.80;;;9.50;99.90;;;;;;5094903;28;20774;-72
2021/10/22 11:13:51;;;;;;;1.37;1.10;;;9.60;99.90;;;;;;5094351;28;20556;-70
2021/10/22 11:16:27;;;;;;;3.30;0.87;;;9.60;99.90;;;;;;5094580;28;20471;-70
2021/10/22 11:19:02;;;;;;;1.20;1.10;;;9.60;99.90;;;;;;5094449;28;20455;-75
2021/10/22 11:21:29;;;;;;;2.37;1.27;;;9.60;99.90;;;;;;5094400;28;20415;-72
2021/10/22 11:23:56;;;;;;;2.70;0.90;;;9.70;99.90;;;;;;5094205;28;20439;-72
2021/10/22 11:26:22;;;;;;;1.60;1.27;;;9.70;99.90;;;;;;5094193;28;20814;-73
2021/10/22 11:28:52;;;;;;;0.80;0.77;;;9.70;99.90;;;;;;5092661;28;20496;-71
2021/10/22 11:31:36;;;;;;;1.17;0.90;;;9.70;99.90;;;;;;5094064;28;20176;-72
2021/10/22 11:34:04;;;;;;;2.17;1.10;;;9.70;99.90;;;;;;5093965;28;20403;-71
2021/10/22 11:36:30;;;;;;;0.80;0.80;;;9.80;99.90;;;;;;5094034;28;20403;-70
2021/10/22 11:38:55;;;;;;;3.00;1.00;;;9.80;99.90;;;;;;5094054;28;20982;-71
2021/10/22 11:41:21;;;;;;;2.60;1.23;;;9.80;99.90;;;;;;5094112;28;20434;-71
2021/10/22 11:44:07;;;;;;;1.17;1.00;;;9.90;99.90;;;;;;5092943;28;20165;-72
2021/10/22 11:46:43;;;;;;;1.37;0.93;;;9.90;99.90;;;;;;5093986;28;20187;-71
2021/10/22 11:49:31;;;;;;;2.00;1.00;;;10.00;99.90;;;;;;5093817;28;20462;-71
2021/10/22 11:51:58;;;;;;;1.37;0.80;;;10.00;99.90;;;;;;5093288;28;20416;-74
2021/10/22 11:54:31;;;;;;;0.80;0.80;;;10.00;99.90;;;;;;5095162;28;20400;-71
2021/10/22 11:57:18;;;;;;;0.80;0.73;;;10.10;99.90;;;;;;5093674;28;20423;-71
2021/10/22 11:59:55;;;;;;;1.10;1.00;;;10.10;99.90;;;;;;5093792;28;20497;-71
2021/10/22 12:02:26;;;;;;;1.83;0.90;;;10.10;99.90;;;;;;5087580;28;20419;-71
2021/10/22 12:05:02;;;;;;;1.00;0.87;;;10.10;99.90;;;;;;5093453;28;20827;-71
2021/10/22 12:07:30;;;;;;;1.63;0.70;;;10.20;99.90;;;;;;5097610;28;20435;-71
2021/10/22 12:09:56;;;;;;;1.47;1.27;;;10.10;99.90;;;;;;5081502;28;20965;-71
2021/10/22 12:12:23;;;;;;;0.97;0.90;;;10.20;99.90;;;;;;5096092;28;20454;-71
2021/10/22 12:14:50;;;;;;;2.40;1.30;;;10.20;99.90;;;;;;5084285;28;20173;-72
2021/10/22 12:17:26;;;;;;;1.33;0.90;;;10.30;99.90;;;;;;5092901;28;20448;-71
2021/10/22 12:19:55;;;;;;;1.63;1.03;;;10.30;99.90;;;;;;5088336;28;20423;-71
2021/10/22 12:22:25;;;;;;;0.73;0.73;;;10.20;99.90;;;;;;5085113;28;20783;-71
2021/10/22 12:24:53;;;;;;;0.70;0.70;;;10.20;99.90;;;;;;5092366;28;20442;-71
2021/10/22 12:27:19;;;;;;;1.07;0.97;;;10.20;99.90;;;;;;5092576;28;20518;-71
2021/10/22 12:29:59;;;;;;;2.10;1.80;;;10.20;99.90;;;;;;5092169;28;20932;-71
2021/10/22 12:32:40;;;;;;;0.90;0.90;;;10.20;99.90;;;;;;5092861;28;21003;-71
2021/10/22 12:35:28;;;;;;;1.33;0.70;;;10.20;99.90;;;;;;5091342;28;20434;-71
2021/10/22 12:38:07;;;;;;;2.20;0.97;;;10.20;99.90;;;;;;5094447;28;20532;-71
2021/10/22 12:40:50;;;;;;;1.90;1.10;;;10.30;99.90;;;;;;5072323;28;20431;-71
2021/10/22 12:43:18;;;;;;;0.80;0.73;;;10.30;99.90;;;;;;5084496;28;20522;-72
2021/10/22 12:45:58;;;;;;;3.90;1.47;;;10.30;99.90;;;;;;5076328;28;20420;-72
2021/10/22 12:48:36;;;;;;;3.40;1.10;;;10.30;99.90;;;;;;5072163;28;20499;-71
2021/10/22 12:51:21;;;;;;;0.93;0.90;;;10.40;99.90;;;;;;5072350;28;20420;-71
2021/10/22 12:53:49;;;;;;;2.93;0.90;;;10.40;99.90;;;;;;5072090;28;20416;-72
2021/10/22 12:56:25;;;;;;;1.03;0.93;;;10.40;99.90;;;;;;5072077;28;20463;-73
2021/10/22 12:59:09;;;;;;;1.27;1.03;;;10.40;99.90;;;;;;5075789;28;20445;-72
2021/10/22 13:01:40;;;;;;;1.30;1.20;;;10.40;99.90;;;;;;5087108;28;20485;-72
2021/10/22 13:04:12;;;;;;;1.67;0.73;;;10.50;99.90;;;;;;5072579;28;20417;-72
2021/10/22 13:09:51;;;;;;;1.83;1.37;;;10.40;99.90;;;;;;5072302;28;20487;-72
2021/10/22 13:15:02;;;;;;;1.87;0.97;;;10.30;99.90;;;;;;5086166;28;20455;-72